PWSweather.com
Personal Weather Stations
Station Observations
IHTIMAN1
Neighbourhood 1, IhtimanBG 2050

Neighbourhood 1IhtimanBG 2050

Lat: 42.436852, Lon: 23.817921

Elevation: 2066

Station Type: Oregon Scientific WMR968

http://ihtiman-meteo.com

High Low Average
Temperature 90.3°F32.4°C 63.7°F17.6°C 77.9°F25.5°C
Dew Point 68.6°F20.3°C 55.0°F12.8°C 62.7°F17.1°C
Winds 10.1 mph 16.3 kmh Calm Calm 3.0 mph SSE4.8 kmh SSE
Wind Gusts 14.5 mph23.3 kmh -- 4.0 mph6.4 kmh
Humidity 91% 47% 62%
Pressure 30.00 in1015.9 mb 29.80 in1009.1 mb -
Precipitation 0.00 in0.0 mm - -
Hour Temp Dew Point Humidity Winds Wind Gusts Pressure Precip Precip Rate Daily Precip Total
12:00 AM 69.0°F20.6°C 60.4°F15.8°C 74% 1.3 mph ESE2.1 kmh ESE 4.5 mph7.2 kmh 30.00 in1015.9 mb - 0.00 in0.0 mm 0.00 in0.0 mm
12:10 AM 69.6°F20.9°C 61.0°F16.1°C 74% Calm Calm -- 30.00 in1015.9 mb - 0.00 in0.0 mm 0.00 in0.0 mm
12:20 AM 69.7°F20.9°C 60.7°F15.9°C 73% 0.6 mph SSE1.0 kmh SSE 3.1 mph5.0 kmh 30.00 in1015.9 mb - 0.00 in0.0 mm 0.00 in0.0 mm
12:30 AM 70.2°F21.2°C 61.5°F16.4°C 74% Calm Calm -- 30.00 in1015.9 mb - 0.00 in0.0 mm 0.00 in0.0 mm
12:40 AM 70.7°F21.5°C 62.0°F16.7°C 74% Calm Calm 3.1 mph5.0 kmh 30.00 in1015.9 mb - 0.00 in0.0 mm 0.00 in0.0 mm
12:50 AM 70.9°F21.6°C 62.2°F16.8°C 74% Calm Calm -- 30.00 in1015.9 mb - 0.00 in0.0 mm 0.00 in0.0 mm
01:00 AM 70.9°F21.6°C 62.2°F16.8°C 74% Calm Calm -- 30.00 in1015.9 mb - 0.00 in0.0 mm 0.00 in0.0 mm
01:10 AM 70.7°F21.5°C 62.0°F16.7°C 74% Calm Calm -- 30.00 in1015.9 mb - 0.00 in0.0 mm 0.00 in0.0 mm
01:20 AM 70.3°F21.3°C 61.7°F16.5°C 74% Calm Calm -- 30.00 in1015.9 mb - 0.00 in0.0 mm 0.00 in0.0 mm
01:30 AM 70.0°F21.1°C 61.3°F16.3°C 74% Calm Calm -- 30.00 in1015.9 mb - 0.00 in0.0 mm 0.00 in0.0 mm
01:40 AM 69.6°F20.9°C 61.3°F16.3°C 75% Calm Calm -- 30.00 in1015.9 mb - 0.00 in0.0 mm 0.00 in0.0 mm
01:50 AM 69.4°F20.8°C 61.5°F16.4°C 76% Calm Calm -- 29.97 in1014.9 mb - 0.00 in0.0 mm 0.00 in0.0 mm
02:00 AM 69.1°F20.6°C 61.2°F16.2°C 76% Calm Calm -- 29.97 in1014.9 mb - 0.00 in0.0 mm 0.00 in0.0 mm
02:10 AM 68.9°F20.5°C 61.4°F16.3°C 77% Calm Calm -- 29.97 in1014.9 mb - 0.00 in0.0 mm 0.00 in0.0 mm
02:20 AM 68.7°F20.4°C 61.2°F16.2°C 77% Calm Calm -- 29.97 in1014.9 mb - 0.00 in0.0 mm 0.00 in0.0 mm
02:30 AM 68.7°F20.4°C 61.2°F16.2°C 77% Calm Calm -- 29.97 in1014.9 mb - 0.00 in0.0 mm 0.00 in0.0 mm
02:40 AM 68.5°F20.3°C 61.4°F16.3°C 78% Calm Calm -- 29.97 in1014.9 mb - 0.00 in0.0 mm 0.00 in0.0 mm
02:50 AM 68.2°F20.1°C 61.1°F16.2°C 78% Calm Calm -- 29.97 in1014.9 mb - 0.00 in0.0 mm 0.00 in0.0 mm
03:00 AM 68.0°F20.0°C 60.9°F16.1°C 78% Calm Calm -- 29.97 in1014.9 mb - 0.00 in0.0 mm 0.00 in0.0 mm
03:10 AM 67.8°F19.9°C 61.1°F16.2°C 79% Calm Calm -- 29.97 in1014.9 mb - 0.00 in0.0 mm 0.00 in0.0 mm
03:20 AM 67.6°F19.8°C 60.9°F16.1°C 79% Calm Calm -- 29.97 in1014.9 mb - 0.00 in0.0 mm 0.00 in0.0 mm
03:30 AM 67.6°F19.8°C 61.2°F16.2°C 80% Calm Calm -- 29.97 in1014.9 mb - 0.00 in0.0 mm 0.00 in0.0 mm
03:40 AM 67.5°F19.7°C 61.1°F16.2°C 80% Calm Calm -- 29.97 in1014.9 mb - 0.00 in0.0 mm 0.00 in0.0 mm
03:50 AM 67.3°F19.6°C 60.9°F16.1°C 80% Calm Calm -- 29.97 in1014.9 mb - 0.00 in0.0 mm 0.00 in0.0 mm
04:00 AM 67.1°F19.5°C 61.1°F16.2°C 81% Calm Calm -- 29.97 in1014.9 mb - 0.00 in0.0 mm 0.00 in0.0 mm
04:10 AM 66.9°F19.4°C 60.9°F16.1°C 81% Calm Calm 2.7 mph4.3 kmh 29.94 in1013.9 mb - 0.00 in0.0 mm 0.00 in0.0 mm
04:20 AM 66.9°F19.4°C 60.9°F16.1°C 81% 1.0 mph SE1.6 kmh SE 3.1 mph5.0 kmh 29.97 in1014.9 mb - 0.00 in0.0 mm 0.00 in0.0 mm
04:30 AM 66.9°F19.4°C 61.2°F16.2°C 82% Calm Calm -- 29.97 in1014.9 mb - 0.00 in0.0 mm 0.00 in0.0 mm
04:40 AM 66.7°F19.3°C 61.1°F16.2°C 82% Calm Calm -- 29.97 in1014.9 mb - 0.00 in0.0 mm 0.00 in0.0 mm
04:50 AM 66.6°F19.2°C 60.9°F16.1°C 82% Calm Calm -- 29.97 in1014.9 mb - 0.00 in0.0 mm 0.00 in0.0 mm
05:00 AM 66.2°F19.0°C 60.2°F15.7°C 81% Calm Calm -- 29.97 in1014.9 mb - 0.00 in0.0 mm 0.00 in0.0 mm
05:10 AM 65.8°F18.8°C 60.2°F15.7°C 82% Calm Calm -- 29.97 in1014.9 mb - 0.00 in0.0 mm 0.00 in0.0 mm
05:20 AM 65.3°F18.5°C 59.7°F15.4°C 82% Calm Calm -- 29.97 in1014.9 mb - 0.00 in0.0 mm 0.00 in0.0 mm
05:30 AM 64.8°F18.2°C 59.1°F15.1°C 82% Calm Calm -- 29.97 in1014.9 mb - 0.00 in0.0 mm 0.00 in0.0 mm
05:40 AM 64.4°F18.0°C 58.8°F14.9°C 82% Calm Calm -- 29.97 in1014.9 mb - 0.00 in0.0 mm 0.00 in0.0 mm
05:50 AM 64.2°F17.9°C 58.9°F14.9°C 83% Calm Calm -- 29.97 in1014.9 mb - 0.00 in0.0 mm 0.00 in0.0 mm
06:00 AM 64.0°F17.8°C 59.1°F15.1°C 84% Calm Calm -- 29.97 in1014.9 mb - 0.00 in0.0 mm 0.00 in0.0 mm
06:10 AM 63.9°F17.7°C 58.9°F14.9°C 84% Calm Calm -- 29.97 in1014.9 mb - 0.00 in0.0 mm 0.00 in0.0 mm
06:20 AM 63.7°F17.6°C 59.1°F15.1°C 85% Calm Calm -- 29.97 in1014.9 mb - 0.00 in0.0 mm 0.00 in0.0 mm
06:30 AM 63.7°F17.6°C 59.4°F15.2°C 86% Calm Calm -- 29.97 in1014.9 mb - 0.00 in0.0 mm 0.00 in0.0 mm
06:40 AM 63.9°F17.7°C 59.6°F15.3°C 86% Calm Calm -- 29.97 in1014.9 mb - 0.00 in0.0 mm 0.00 in0.0 mm
06:50 AM 64.0°F17.8°C 59.8°F15.4°C 86% Calm Calm -- 29.97 in1014.9 mb - 0.00 in0.0 mm 0.00 in0.0 mm
07:00 AM 64.2°F17.9°C 60.3°F15.7°C 87% Calm Calm -- 29.97 in1014.9 mb - 0.00 in0.0 mm 0.00 in0.0 mm
07:10 AM 64.6°F18.1°C 60.9°F16.1°C 88% Calm Calm -- 29.97 in1014.9 mb - 0.00 in0.0 mm 0.00 in0.0 mm
07:20 AM 65.1°F18.4°C 61.5°F16.4°C 88% Calm Calm -- 29.97 in1014.9 mb - 0.00 in0.0 mm 0.00 in0.0 mm
07:30 AM 66.4°F19.1°C 63.7°F17.6°C 91% Calm Calm -- 29.97 in1014.9 mb - 0.00 in0.0 mm 0.00 in0.0 mm
07:40 AM 67.5°F19.7°C 63.8°F17.7°C 88% Calm Calm -- 29.97 in1014.9 mb - 0.00 in0.0 mm 0.00 in0.0 mm
07:50 AM 68.8°F20.4°C 64.2°F17.9°C 85% Calm Calm -- 29.97 in1014.9 mb - 0.00 in0.0 mm 0.00 in0.0 mm
08:00 AM 70.0°F21.1°C 64.2°F17.9°C 82% Calm Calm -- 29.97 in1014.9 mb - 0.00 in0.0 mm 0.00 in0.0 mm
08:10 AM 71.1°F21.7°C 65.0°F18.3°C 81% Calm Calm -- 29.97 in1014.9 mb - 0.00 in0.0 mm 0.00 in0.0 mm
08:20 AM 72.0°F22.2°C 65.2°F18.4°C 79% Calm Calm -- 29.94 in1013.9 mb - 0.00 in0.0 mm 0.00 in0.0 mm
08:30 AM 73.4°F23.0°C 65.0°F18.3°C 75% Calm Calm 2.7 mph4.3 kmh 29.94 in1013.9 mb - 0.00 in0.0 mm 0.00 in0.0 mm
08:40 AM 74.4°F23.6°C 65.6°F18.7°C 74% 1.5 mph SW2.4 kmh SW -- 29.94 in1013.9 mb - 0.00 in0.0 mm 0.00 in0.0 mm
08:50 AM 76.1°F24.5°C 66.0°F18.9°C 71% Calm Calm 5.4 mph8.7 kmh 29.94 in1013.9 mb - 0.00 in0.0 mm 0.00 in0.0 mm
09:00 AM 77.5°F25.3°C 64.8°F18.2°C 65% 3.6 mph SE5.8 kmh SE 4.9 mph7.9 kmh 29.94 in1013.9 mb - 0.00 in0.0 mm 0.00 in0.0 mm
09:10 AM 78.0°F25.6°C 64.8°F18.2°C 64% 3.3 mph SE5.3 kmh SE 4.0 mph6.4 kmh 29.94 in1013.9 mb - 0.00 in0.0 mm 0.00 in0.0 mm
09:20 AM 78.9°F26.1°C 65.2°F18.4°C 63% 4.6 mph SE7.4 kmh SE 5.8 mph9.3 kmh 29.94 in1013.9 mb - 0.00 in0.0 mm 0.00 in0.0 mm
09:30 AM 79.5°F26.4°C 65.4°F18.6°C 62% 4.5 mph SE7.2 kmh SE 7.6 mph12.2 kmh 29.94 in1013.9 mb - 0.00 in0.0 mm 0.00 in0.0 mm
09:40 AM 79.3°F26.3°C 65.6°F18.7°C 63% 2.7 mph S4.3 kmh S 4.9 mph7.9 kmh 29.94 in1013.9 mb - 0.00 in0.0 mm 0.00 in0.0 mm
09:50 AM 80.1°F26.7°C 65.9°F18.8°C 62% 5.7 mph SE9.2 kmh SE 6.3 mph10.1 kmh 29.94 in1013.9 mb - 0.00 in0.0 mm 0.00 in0.0 mm
10:00 AM 80.6°F27.0°C 66.4°F19.1°C 62% 1.4 mph S2.3 kmh S 5.4 mph8.7 kmh 29.94 in1013.9 mb - 0.00 in0.0 mm 0.00 in0.0 mm
10:10 AM 81.1°F27.3°C 65.9°F18.8°C 60% 4.2 mph SE6.8 kmh SE 8.0 mph12.9 kmh 29.94 in1013.9 mb - 0.00 in0.0 mm 0.00 in0.0 mm
10:20 AM 81.5°F27.5°C 66.3°F19.1°C 60% 3.7 mph SE6.0 kmh SE 6.3 mph10.1 kmh 29.94 in1013.9 mb - 0.00 in0.0 mm 0.00 in0.0 mm
10:30 AM 82.4°F28.0°C 67.1°F19.5°C 60% 1.5 mph SSE2.4 kmh SSE 5.8 mph9.3 kmh 29.94 in1013.9 mb - 0.00 in0.0 mm 0.00 in0.0 mm
10:40 AM 82.9°F28.3°C 67.1°F19.5°C 59% 4.9 mph SE7.9 kmh SE 7.6 mph12.2 kmh 29.94 in1013.9 mb - 0.00 in0.0 mm 0.00 in0.0 mm
10:50 AM 83.5°F28.6°C 67.6°F19.8°C 59% 3.6 mph SSE5.8 kmh SSE 6.3 mph10.1 kmh 29.94 in1013.9 mb - 0.00 in0.0 mm 0.00 in0.0 mm
11:00 AM 83.8°F28.8°C 67.5°F19.7°C 58% 2.1 mph ESE3.4 kmh ESE -- 29.94 in1013.9 mb - 0.00 in0.0 mm 0.00 in0.0 mm
11:10 AM 84.3°F29.1°C 68.4°F20.2°C 59% Calm Calm -- 29.94 in1013.9 mb - 0.00 in0.0 mm 0.00 in0.0 mm
11:20 AM 85.0°F29.4°C 68.6°F20.3°C 58% 3.4 mph SSE5.5 kmh SSE 4.0 mph6.4 kmh 29.94 in1013.9 mb - 0.00 in0.0 mm 0.00 in0.0 mm
11:30 AM 85.5°F29.7°C 68.0°F20.0°C 56% 4.1 mph SE6.6 kmh SE 8.0 mph12.9 kmh 29.94 in1013.9 mb - 0.00 in0.0 mm 0.00 in0.0 mm
11:40 AM 85.8°F29.9°C 67.8°F19.9°C 55% 4.5 mph SSE7.2 kmh SSE 6.3 mph10.1 kmh 29.94 in1013.9 mb - 0.00 in0.0 mm 0.00 in0.0 mm
11:50 AM 86.4°F30.2°C 67.8°F19.9°C 54% 4.0 mph SSE6.4 kmh SSE 6.3 mph10.1 kmh 29.94 in1013.9 mb - 0.00 in0.0 mm 0.00 in0.0 mm
12:00 PM 86.9°F30.5°C 67.7°F19.8°C 53% 2.8 mph SE4.5 kmh SE 3.1 mph5.0 kmh 29.94 in1013.9 mb - 0.00 in0.0 mm 0.00 in0.0 mm
12:10 PM 87.2°F30.7°C 67.4°F19.7°C 52% 3.4 mph SE5.5 kmh SE 4.0 mph6.4 kmh 29.94 in1013.9 mb - 0.00 in0.0 mm 0.00 in0.0 mm
12:20 PM 88.0°F31.1°C 68.1°F20.1°C 52% 2.6 mph ESE4.2 kmh ESE 4.0 mph6.4 kmh 29.94 in1013.9 mb - 0.00 in0.0 mm 0.00 in0.0 mm
12:30 PM 88.0°F31.1°C 67.6°F19.8°C 51% 2.8 mph SE4.5 kmh SE 4.0 mph6.4 kmh 29.94 in1013.9 mb - 0.00 in0.0 mm 0.00 in0.0 mm
12:40 PM 88.7°F31.5°C 67.7°F19.8°C 50% 1.5 mph WSW2.4 kmh WSW -- 29.94 in1013.9 mb - 0.00 in0.0 mm 0.00 in0.0 mm
12:50 PM 89.1°F31.7°C 67.4°F19.7°C 49% 1.5 mph SE2.4 kmh SE 4.9 mph7.9 kmh 29.91 in1012.9 mb - 0.00 in0.0 mm 0.00 in0.0 mm
01:00 PM 89.2°F31.8°C 67.0°F19.4°C 48% 3.8 mph SSE6.1 kmh SSE 4.0 mph6.4 kmh 29.91 in1012.9 mb - 0.00 in0.0 mm 0.00 in0.0 mm
01:10 PM 89.0°F31.7°C 68.5°F20.3°C 51% 4.5 mph S7.2 kmh S 6.3 mph10.1 kmh 29.91 in1012.9 mb - 0.00 in0.0 mm 0.00 in0.0 mm
01:20 PM 89.7°F32.1°C 67.4°F19.7°C 48% 2.5 mph ESE4.0 kmh ESE 3.6 mph5.8 kmh 29.91 in1012.9 mb - 0.00 in0.0 mm 0.00 in0.0 mm
01:30 PM 89.4°F31.9°C 67.1°F19.5°C 48% 4.2 mph SE6.8 kmh SE 5.8 mph9.3 kmh 29.91 in1012.9 mb - 0.00 in0.0 mm 0.00 in0.0 mm
01:40 PM 89.8°F32.1°C 66.9°F19.4°C 47% 4.4 mph SSE7.1 kmh SSE 6.3 mph10.1 kmh 29.91 in1012.9 mb - 0.00 in0.0 mm 0.00 in0.0 mm
01:50 PM 90.1°F32.3°C 67.2°F19.6°C 47% 3.5 mph SE5.6 kmh SE 8.0 mph12.9 kmh 29.91 in1012.9 mb - 0.00 in0.0 mm 0.00 in0.0 mm
02:00 PM 90.3°F32.4°C 67.4°F19.7°C 47% 2.8 mph S4.5 kmh S 8.3 mph13.4 kmh 29.91 in1012.9 mb - 0.00 in0.0 mm 0.00 in0.0 mm
02:10 PM 88.9°F31.6°C 66.7°F19.3°C 48% 3.7 mph S6.0 kmh S 6.3 mph10.1 kmh 29.88 in1011.9 mb - 0.00 in0.0 mm 0.00 in0.0 mm
02:20 PM 89.8°F32.1°C 66.9°F19.4°C 47% 3.9 mph NE6.3 kmh NE 4.0 mph6.4 kmh 29.88 in1011.9 mb - 0.00 in0.0 mm 0.00 in0.0 mm
02:30 PM 89.8°F32.1°C 66.9°F19.4°C 47% 6.0 mph SSE9.7 kmh SSE 5.4 mph8.7 kmh 29.88 in1011.9 mb - 0.00 in0.0 mm 0.00 in0.0 mm
02:40 PM 90.0°F32.2°C 67.0°F19.4°C 47% 4.3 mph SE6.9 kmh SE 5.8 mph9.3 kmh 29.88 in1011.9 mb - 0.00 in0.0 mm 0.00 in0.0 mm
02:50 PM 90.3°F32.4°C 67.4°F19.7°C 47% 3.5 mph SSE5.6 kmh SSE 7.6 mph12.2 kmh 29.88 in1011.9 mb - 0.00 in0.0 mm 0.00 in0.0 mm
03:00 PM 90.0°F32.2°C 67.0°F19.4°C 47% 5.2 mph SSE8.4 kmh SSE 7.2 mph11.6 kmh 29.88 in1011.9 mb - 0.00 in0.0 mm 0.00 in0.0 mm
03:10 PM 90.0°F32.2°C 67.0°F19.4°C 47% 5.5 mph SE8.9 kmh SE 9.2 mph14.8 kmh 29.88 in1011.9 mb - 0.00 in0.0 mm 0.00 in0.0 mm
03:20 PM 90.1°F32.3°C 67.2°F19.6°C 47% 5.6 mph SE9.0 kmh SE 7.6 mph12.2 kmh 29.88 in1011.9 mb - 0.00 in0.0 mm 0.00 in0.0 mm
03:30 PM 89.8°F32.1°C 66.9°F19.4°C 47% 6.9 mph SE11.1 kmh SE 10.5 mph16.9 kmh 29.88 in1011.9 mb - 0.00 in0.0 mm 0.00 in0.0 mm
03:40 PM 89.2°F31.8°C 66.4°F19.1°C 47% 6.3 mph SSE10.1 kmh SSE 8.7 mph14.0 kmh 29.88 in1011.9 mb - 0.00 in0.0 mm 0.00 in0.0 mm
03:50 PM 88.9°F31.6°C 66.0°F18.9°C 47% 4.5 mph SE7.2 kmh SE 11.4 mph18.3 kmh 29.86 in1011.2 mb - 0.00 in0.0 mm 0.00 in0.0 mm
04:00 PM 89.1°F31.7°C 66.2°F19.0°C 47% 4.5 mph SE7.2 kmh SE 7.6 mph12.2 kmh 29.86 in1011.2 mb - 0.00 in0.0 mm 0.00 in0.0 mm
04:10 PM 89.1°F31.7°C 66.2°F19.0°C 47% 4.3 mph ESE6.9 kmh ESE 6.3 mph10.1 kmh 29.86 in1011.2 mb - 0.00 in0.0 mm 0.00 in0.0 mm
04:20 PM 88.9°F31.6°C 66.0°F18.9°C 47% 5.2 mph SE8.4 kmh SE 8.3 mph13.4 kmh 29.82 in1009.8 mb - 0.00 in0.0 mm 0.00 in0.0 mm
04:30 PM 88.2°F31.2°C 65.4°F18.6°C 47% 6.6 mph SE10.6 kmh SE 8.7 mph14.0 kmh 29.83 in1010.2 mb - 0.00 in0.0 mm 0.00 in0.0 mm
04:40 PM 87.6°F30.9°C 64.9°F18.3°C 47% 5.5 mph SSE8.9 kmh SSE 5.8 mph9.3 kmh 29.86 in1011.2 mb - 0.00 in0.0 mm 0.00 in0.0 mm
04:50 PM 87.1°F30.6°C 64.4°F18.0°C 47% 4.5 mph SE7.2 kmh SE 5.8 mph9.3 kmh 29.86 in1011.2 mb - 0.00 in0.0 mm 0.00 in0.0 mm
05:00 PM 87.3°F30.7°C 64.6°F18.1°C 47% 5.3 mph SE8.5 kmh SE 10.5 mph16.9 kmh 29.86 in1011.2 mb - 0.00 in0.0 mm 0.00 in0.0 mm
05:10 PM 86.9°F30.5°C 64.2°F17.9°C 47% 5.4 mph SSE8.7 kmh SSE 5.4 mph8.7 kmh 29.82 in1009.8 mb - 0.00 in0.0 mm 0.00 in0.0 mm
05:20 PM 86.5°F30.3°C 63.9°F17.7°C 47% 5.1 mph ESE8.2 kmh ESE 5.8 mph9.3 kmh 29.82 in1009.8 mb - 0.00 in0.0 mm 0.00 in0.0 mm
05:30 PM 86.0°F30.0°C 63.4°F17.4°C 47% 3.3 mph SE5.3 kmh SE 5.8 mph9.3 kmh 29.82 in1009.8 mb - 0.00 in0.0 mm 0.00 in0.0 mm
05:40 PM 85.5°F29.7°C 63.5°F17.5°C 48% 4.3 mph SE6.9 kmh SE 6.3 mph10.1 kmh 29.82 in1009.8 mb - 0.00 in0.0 mm 0.00 in0.0 mm
05:50 PM 85.1°F29.5°C 63.2°F17.3°C 48% 4.4 mph SE7.1 kmh SE 3.1 mph5.0 kmh 29.82 in1009.8 mb - 0.00 in0.0 mm 0.00 in0.0 mm
06:11 PM 85.1°F29.5°C 63.2°F17.3°C 48% 4.1 mph SSE6.6 kmh SSE 6.7 mph10.8 kmh 29.82 in1009.8 mb - 0.00 in0.0 mm 0.00 in0.0 mm
06:20 PM 84.3°F29.1°C 62.5°F16.9°C 48% 3.4 mph SE5.5 kmh SE 4.9 mph7.9 kmh 29.82 in1009.8 mb - 0.00 in0.0 mm 0.00 in0.0 mm
06:30 PM 83.8°F28.8°C 62.1°F16.7°C 48% 3.8 mph SE6.1 kmh SE 5.8 mph9.3 kmh 29.82 in1009.8 mb - 0.00 in0.0 mm 0.00 in0.0 mm
06:40 PM 83.4°F28.6°C 61.6°F16.4°C 48% 0.9 mph SE1.4 kmh SE 3.1 mph5.0 kmh 29.82 in1009.8 mb - 0.00 in0.0 mm 0.00 in0.0 mm
06:50 PM 82.9°F28.3°C 61.2°F16.2°C 48% 2.9 mph SE4.7 kmh SE 4.0 mph6.4 kmh 29.80 in1009.1 mb - 0.00 in0.0 mm 0.00 in0.0 mm
07:00 PM 82.4°F28.0°C 60.7°F15.9°C 48% Calm Calm -- 29.80 in1009.1 mb - 0.00 in0.0 mm 0.00 in0.0 mm
07:10 PM 81.7°F27.6°C 61.2°F16.2°C 50% 3.0 mph SE4.8 kmh SE 4.9 mph7.9 kmh 29.80 in1009.1 mb - 0.00 in0.0 mm 0.00 in0.0 mm
07:20 PM 81.0°F27.2°C 60.6°F15.9°C 50% 2.5 mph SE4.0 kmh SE 4.0 mph6.4 kmh 29.80 in1009.1 mb - 0.00 in0.0 mm 0.00 in0.0 mm
07:30 PM 80.8°F27.1°C 60.4°F15.8°C 50% 5.5 mph SE8.9 kmh SE 6.3 mph10.1 kmh 29.80 in1009.1 mb - 0.00 in0.0 mm 0.00 in0.0 mm
07:40 PM 80.6°F27.0°C 60.2°F15.7°C 50% 2.4 mph SSE3.9 kmh SSE 3.1 mph5.0 kmh 29.80 in1009.1 mb - 0.00 in0.0 mm 0.00 in0.0 mm
07:50 PM 80.2°F26.8°C 59.9°F15.5°C 50% 1.8 mph SE2.9 kmh SE 6.3 mph10.1 kmh 29.80 in1009.1 mb - 0.00 in0.0 mm 0.00 in0.0 mm
08:00 PM 80.1°F26.7°C 59.7°F15.4°C 50% 3.7 mph SE6.0 kmh SE 5.8 mph9.3 kmh 29.80 in1009.1 mb - 0.00 in0.0 mm 0.00 in0.0 mm
08:10 PM 80.1°F26.7°C 59.7°F15.4°C 50% 1.2 mph S1.9 kmh S 3.6 mph5.8 kmh 29.80 in1009.1 mb - 0.00 in0.0 mm 0.00 in0.0 mm
08:20 PM 79.9°F26.6°C 59.6°F15.3°C 50% Calm Calm 3.6 mph5.8 kmh 29.80 in1009.1 mb - 0.00 in0.0 mm 0.00 in0.0 mm
08:30 PM 79.5°F26.4°C 59.2°F15.1°C 50% 2.9 mph SSE4.7 kmh SSE 5.4 mph8.7 kmh 29.80 in1009.1 mb - 0.00 in0.0 mm 0.00 in0.0 mm
08:40 PM 79.2°F26.2°C 58.9°F14.9°C 50% 2.5 mph SE4.0 kmh SE 3.6 mph5.8 kmh 29.80 in1009.1 mb - 0.00 in0.0 mm 0.00 in0.0 mm
08:50 PM 78.8°F26.0°C 58.6°F14.8°C 50% 1.2 mph S1.9 kmh S 3.6 mph5.8 kmh 29.80 in1009.1 mb - 0.00 in0.0 mm 0.00 in0.0 mm
09:00 PM 78.4°F25.8°C 58.3°F14.6°C 50% 3.7 mph ESE6.0 kmh ESE 7.6 mph12.2 kmh 29.80 in1009.1 mb - 0.00 in0.0 mm 0.00 in0.0 mm
09:10 PM 79.5°F26.4°C 58.1°F14.5°C 48% 4.4 mph ESE7.1 kmh ESE 8.7 mph14.0 kmh 29.80 in1009.1 mb - 0.00 in0.0 mm 0.00 in0.0 mm
09:20 PM 80.4°F26.9°C 58.9°F14.9°C 48% 6.3 mph SE10.1 kmh SE 6.3 mph10.1 kmh 29.80 in1009.1 mb - 0.00 in0.0 mm 0.00 in0.0 mm
09:30 PM 80.8°F27.1°C 58.7°F14.8°C 47% 7.3 mph SE11.7 kmh SE 12.3 mph19.8 kmh 29.80 in1009.1 mb - 0.00 in0.0 mm 0.00 in0.0 mm
09:40 PM 81.1°F27.3°C 59.0°F15.0°C 47% 7.7 mph E12.4 kmh E 14.5 mph23.3 kmh 29.80 in1009.1 mb - 0.00 in0.0 mm 0.00 in0.0 mm
09:50 PM 81.1°F27.3°C 59.0°F15.0°C 47% 7.7 mph SE12.4 kmh SE 10.5 mph16.9 kmh 29.80 in1009.1 mb - 0.00 in0.0 mm 0.00 in0.0 mm
10:00 PM 81.0°F27.2°C 58.8°F14.9°C 47% 8.4 mph SE13.5 kmh SE 13.2 mph21.2 kmh 29.80 in1009.1 mb - 0.00 in0.0 mm 0.00 in0.0 mm
10:10 PM 80.4°F26.9°C 58.3°F14.6°C 47% 6.5 mph SE10.5 kmh SE 10.9 mph17.5 kmh 29.80 in1009.1 mb - 0.00 in0.0 mm 0.00 in0.0 mm
10:20 PM 79.6°F26.4°C 57.6°F14.2°C 47% 6.4 mph SE10.3 kmh SE 10.9 mph17.5 kmh 29.80 in1009.1 mb - 0.00 in0.0 mm 0.00 in0.0 mm
10:30 PM 79.0°F26.1°C 57.0°F13.9°C 47% 9.0 mph SE14.5 kmh SE 12.3 mph19.8 kmh 29.80 in1009.1 mb - 0.00 in0.0 mm 0.00 in0.0 mm
10:40 PM 78.4°F25.8°C 57.1°F13.9°C 48% 7.4 mph SE11.9 kmh SE 12.7 mph20.4 kmh 29.80 in1009.1 mb - 0.00 in0.0 mm 0.00 in0.0 mm
10:50 PM 78.1°F25.6°C 56.2°F13.4°C 47% 10.1 mph SE16.3 kmh SE 13.6 mph21.9 kmh 29.80 in1009.1 mb - 0.00 in0.0 mm 0.00 in0.0 mm
11:00 PM 77.7°F25.4°C 55.9°F13.3°C 47% 7.3 mph ESE11.7 kmh ESE 14.5 mph23.3 kmh 29.80 in1009.1 mb - 0.00 in0.0 mm 0.00 in0.0 mm
11:10 PM 77.4°F25.2°C 55.6°F13.1°C 47% 6.4 mph SE10.3 kmh SE 9.6 mph15.4 kmh 29.80 in1009.1 mb - 0.00 in0.0 mm 0.00 in0.0 mm
11:20 PM 77.0°F25.0°C 55.2°F12.9°C 47% 6.2 mph SE10.0 kmh SE 8.7 mph14.0 kmh 29.80 in1009.1 mb - 0.00 in0.0 mm 0.00 in0.0 mm
11:30 PM 76.7°F24.8°C 55.5°F13.1°C 48% 5.8 mph SE9.3 kmh SE 10.1 mph16.3 kmh 29.80 in1009.1 mb - 0.00 in0.0 mm 0.00 in0.0 mm
11:40 PM 76.5°F24.7°C 55.3°F12.9°C 48% 8.5 mph SE13.7 kmh SE 10.9 mph17.5 kmh 29.80 in1009.1 mb - 0.00 in0.0 mm 0.00 in0.0 mm
11:50 PM 76.1°F24.5°C 55.0°F12.8°C 48% 7.8 mph SE12.6 kmh SE 10.9 mph17.5 kmh 29.80 in1009.1 mb - 0.00 in0.0 mm 0.00 in0.0 mm